Maddensville, Pennsylvania
Current Conditions -  °F | °C
As of 2:53 PM on Saturday 25 Oct 2014 (Local Time) from KAOO Reporting Station
Broken Clouds Broken Clouds  
Wind Chill: 64°   Ceiling: 6000
Heat Index: 64°   Visibility: 10mi
Dew Point: 46°   Wind: 13mph
Humidity: 52%   Direction: 270°W
Pressure: 29.79"   Gusts: 24mph
Location:  40.2435°N, 77.9084°W
Report Text: KAOO 251853Z AUTO 27011G21KT 10SM BKN060 18/08 A2979 RMK AO2 SLP087 T01780078
Loading
Personal Weather Stations






























Interactive Weather Map
Tropical Storm Tracking
New forecast layout! Learn more

10-Day Weather Forecast

Advertisements
Track Severe Weather on mobile